Time;durP1;ratioP1;P1;durP2;ratioP2;P2;SDS_P1;SDS_P2;PMS_P1;PMS_P2;Temp;Humidity;BMP_temperature;BMP_pressure;BME280_temperature;BME280_humidity;BME280_pressure;Samples;Min_cycle;Max_cycle;Signal;HPM_P1;HPM_P2
2020/12/31 00:02:12;;;;;;;97.75;41.05;;;4.80;92.50;;;;;;4992298;28;20149;-89
2020/12/31 00:04:37;;;;;;;104.95;41.33;;;4.80;92.60;;;;;;4991650;28;20049;-89
2020/12/31 00:07:04;;;;;;;96.07;39.30;;;4.70;92.40;;;;;;4990284;28;20026;-88
2020/12/31 00:09:29;;;;;;;82.80;41.42;;;4.80;92.70;;;;;;4987172;28;20054;-88
2020/12/31 00:11:55;;;;;;;148.30;42.22;;;4.70;92.60;;;;;;4989964;28;20014;-89
2020/12/31 00:14:21;;;;;;;108.18;43.20;;;4.70;92.60;;;;;;4993172;28;20030;-88
2020/12/31 00:16:46;;;;;;;243.45;46.85;;;4.70;92.70;;;;;;4971925;28;20033;-88
2020/12/31 00:19:12;;;;;;;99.32;40.20;;;4.70;92.60;;;;;;4987563;28;20045;-89
2020/12/31 00:21:38;;;;;;;112.30;43.95;;;4.60;92.70;;;;;;4989303;28;20030;-88
2020/12/31 00:24:04;;;;;;;125.65;42.97;;;4.60;92.60;;;;;;4972446;28;20125;-89
2020/12/31 00:26:30;;;;;;;100.00;41.95;;;4.60;92.60;;;;;;4992125;28;20030;-88
2020/12/31 00:28:56;;;;;;;135.32;42.47;;;4.60;92.50;;;;;;4989065;28;20042;-87
2020/12/31 00:31:21;;;;;;;102.15;43.45;;;4.60;92.60;;;;;;4987253;28;20038;-89
2020/12/31 00:33:47;;;;;;;96.30;45.55;;;4.50;92.70;;;;;;4984733;28;20030;-88
2020/12/31 00:36:13;;;;;;;204.32;48.80;;;4.50;92.70;;;;;;4990205;28;20486;-88
2020/12/31 00:38:39;;;;;;;101.63;45.85;;;4.50;92.20;;;;;;4990245;28;20050;-87
2020/12/31 00:41:04;;;;;;;92.78;45.10;;;4.40;92.50;;;;;;4988792;28;20493;-88
2020/12/31 00:43:30;;;;;;;111.93;44.58;;;4.40;92.50;;;;;;4988000;28;20117;-87
2020/12/31 00:45:56;;;;;;;114.03;48.13;;;4.40;92.40;;;;;;4991031;28;20069;-88
2020/12/31 00:48:22;;;;;;;107.63;47.25;;;4.40;92.50;;;;;;4990493;28;20064;-87
2020/12/31 00:50:47;;;;;;;102.03;48.17;;;4.30;92.50;;;;;;4973319;28;20125;-88
2020/12/31 00:53:13;;;;;;;114.93;49.35;;;4.30;92.60;;;;;;4990308;28;20026;-88
2020/12/31 00:55:39;;;;;;;103.38;47.03;;;4.20;92.60;;;;;;4973602;28;20126;-88
2020/12/31 00:58:05;;;;;;;113.03;47.47;;;4.20;92.60;;;;;;4971893;28;20026;-88
2020/12/31 01:00:30;;;;;;;107.65;48.72;;;4.20;92.60;;;;;;4972928;28;20121;-87
2020/12/31 01:02:57;;;;;;;107.57;50.10;;;4.10;92.70;;;;;;4985672;28;20022;-88
2020/12/31 01:05:23;;;;;;;106.30;48.05;;;4.10;92.90;;;;;;4989465;28;20074;-88
2020/12/31 01:07:51;;;;;;;123.80;50.80;;;4.10;92.90;;;;;;4988939;28;20069;-87
2020/12/31 01:10:17;;;;;;;114.88;49.22;;;4.10;93.00;;;;;;4989805;28;20269;-88
2020/12/31 01:12:43;;;;;;;96.38;47.03;;;4.10;92.80;;;;;;4973872;28;20375;-89
2020/12/31 01:15:08;;;;;;;105.85;48.60;;;4.10;92.70;;;;;;4988864;28;20102;-88
2020/12/31 01:17:35;;;;;;;104.22;49.58;;;4.20;92.40;;;;;;4990728;28;20427;-89
2020/12/31 01:20:01;;;;;;;112.97;50.53;;;4.10;92.70;;;;;;4987156;28;20062;-88
2020/12/31 01:22:27;;;;;;;207.85;54.53;;;4.10;92.90;;;;;;4987585;28;20050;-89
2020/12/31 01:24:53;;;;;;;109.90;47.88;;;4.10;93.00;;;;;;4969985;28;20041;-88
2020/12/31 01:27:18;;;;;;;102.18;45.83;;;4.10;92.80;;;;;;4969500;28;20023;-89
2020/12/31 01:29:44;;;;;;;108.68;49.88;;;4.10;92.60;;;;;;4989058;28;20045;-88
2020/12/31 01:32:10;;;;;;;120.05;51.85;;;4.10;92.60;;;;;;4988027;28;20034;-88
2020/12/31 01:34:36;;;;;;;167.50;54.40;;;4.00;92.90;;;;;;4987995;28;20050;-88
2020/12/31 01:37:02;;;;;;;129.52;52.72;;;4.00;92.70;;;;;;4988228;28;20196;-88
2020/12/31 01:39:28;;;;;;;148.95;53.70;;;4.00;93.20;;;;;;4987266;28;20034;-87
2020/12/31 01:41:53;;;;;;;113.35;52.55;;;3.90;93.30;;;;;;4968279;28;20018;-89
2020/12/31 01:44:19;;;;;;;240.05;56.58;;;4.00;93.40;;;;;;4971308;28;20662;-88
2020/12/31 01:46:47;;;;;;;146.65;54.08;;;4.00;93.10;;;;;;4988536;28;20034;-88
2020/12/31 01:49:18;;;;;;;134.13;53.72;;;4.00;93.10;;;;;;4986028;28;20418;-88
2020/12/31 01:51:46;;;;;;;182.23;51.90;;;4.00;93.20;;;;;;4984935;28;20109;-87
2020/12/31 01:54:14;;;;;;;137.43;50.60;;;4.00;92.80;;;;;;4985643;28;20018;-85
2020/12/31 01:56:42;;;;;;;118.47;48.92;;;4.00;92.80;;;;;;4988379;28;20386;-87
2020/12/31 01:59:08;;;;;;;159.75;48.58;;;3.90;93.10;;;;;;4988273;28;20053;-88
2020/12/31 02:01:33;;;;;;;283.90;52.58;;;4.00;93.30;;;;;;4987568;28;20105;-88
2020/12/31 02:04:00;;;;;;;116.63;50.67;;;4.00;92.90;;;;;;4987571;28;20035;-88
2020/12/31 02:06:28;;;;;;;111.80;49.63;;;3.90;93.10;;;;;;4985006;28;20077;-87
2020/12/31 02:08:54;;;;;;;135.73;49.85;;;3.90;93.00;;;;;;4988108;28;20485;-88
2020/12/31 02:11:23;;;;;;;152.45;50.08;;;3.80;93.10;;;;;;4987649;28;20058;-87
2020/12/31 02:13:49;;;;;;;178.00;47.88;;;3.90;93.00;;;;;;4988973;28;20053;-87
2020/12/31 02:16:18;;;;;;;136.93;47.22;;;3.90;92.70;;;;;;4985777;28;20112;-88
2020/12/31 02:18:55;;;;;;;189.53;50.47;;;3.80;92.90;;;;;;4987531;28;20035;-88
2020/12/31 02:21:48;;;;;;;112.93;45.83;;;3.80;92.80;;;;;;4985410;28;20030;-88
2020/12/31 02:24:14;;;;;;;151.60;41.83;;;3.80;92.70;;;;;;4982551;28;20041;-88
2020/12/31 02:26:42;;;;;;;98.30;41.15;;;3.70;92.40;;;;;;4989971;28;20036;-88
2020/12/31 02:29:09;;;;;;;132.05;42.40;;;3.70;92.40;;;;;;4988459;28;20033;-88
2020/12/31 02:31:36;;;;;;;164.57;44.33;;;3.70;92.70;;;;;;4986855;28;20027;-87
2020/12/31 02:34:03;;;;;;;136.95;42.95;;;3.70;92.50;;;;;;4986042;28;20021;-87
2020/12/31 02:36:31;;;;;;;125.18;43.15;;;3.60;92.50;;;;;;4970367;28;20426;-88
2020/12/31 02:38:59;;;;;;;109.10;44.30;;;3.60;92.50;;;;;;4987499;28;20033;-87
2020/12/31 02:41:24;;;;;;;136.27;43.33;;;3.50;92.70;;;;;;4971278;28;20042;-88
2020/12/31 02:43:50;;;;;;;136.32;44.05;;;3.50;92.80;;;;;;4989064;28;20029;-88
2020/12/31 02:46:19;;;;;;;108.15;40.97;;;3.50;92.80;;;;;;4986343;28;20414;-88
2020/12/31 02:48:46;;;;;;;107.05;42.10;;;3.60;92.70;;;;;;4985428;28;20021;-87
2020/12/31 02:51:12;;;;;;;116.82;39.85;;;3.50;92.50;;;;;;4986236;28;20483;-89
2020/12/31 02:53:38;;;;;;;97.05;38.75;;;3.50;92.20;;;;;;4991651;28;20034;-88
2020/12/31 02:56:12;;;;;;;90.45;41.13;;;3.50;92.20;;;;;;4973949;28;20022;-88
2020/12/31 02:58:38;;;;;;;141.15;41.75;;;3.40;92.30;;;;;;4989446;28;20037;-88
2020/12/31 03:01:06;;;;;;;452.35;59.15;;;3.50;92.70;;;;;;4990820;28;20430;-88
2020/12/31 03:03:32;;;;;;;142.77;42.85;;;3.40;92.50;;;;;;4993032;28;20022;-88
2020/12/31 03:05:57;;;;;;;104.18;41.95;;;3.30;93.10;;;;;;4993777;28;21201;-87
2020/12/31 03:08:23;;;;;;;252.73;49.08;;;3.30;93.20;;;;;;4994088;28;20116;-87
2020/12/31 03:10:50;;;;;;;113.18;43.05;;;3.30;92.90;;;;;;4990766;28;20022;-88
2020/12/31 03:13:17;;;;;;;91.28;40.58;;;3.30;93.50;;;;;;4990277;28;20026;-88
2020/12/31 03:15:43;;;;;;;94.75;39.10;;;3.30;93.40;;;;;;4989856;28;20030;-88
2020/12/31 03:18:08;;;;;;;131.05;41.03;;;3.40;93.50;;;;;;4987952;28;20037;-87
2020/12/31 03:20:34;;;;;;;116.13;39.17;;;3.40;93.20;;;;;;4989113;28;20034;-87
2020/12/31 03:22:59;;;;;;;84.18;37.58;;;3.50;93.10;;;;;;4989817;28;20054;-88
2020/12/31 03:25:25;;;;;;;69.53;33.42;;;3.50;92.80;;;;;;4989641;28;20494;-88
2020/12/31 03:27:51;;;;;;;76.60;35.10;;;3.50;92.30;;;;;;4991473;28;20049;-88
2020/12/31 03:30:16;;;;;;;90.13;34.88;;;3.40;92.30;;;;;;4993799;28;20120;-88
2020/12/31 03:32:42;;;;;;;176.50;36.67;;;3.50;92.40;;;;;;4993242;28;20077;-87
2020/12/31 03:35:08;;;;;;;87.53;37.65;;;3.30;92.10;;;;;;4993425;28;20045;-87
2020/12/31 03:37:33;;;;;;;178.57;40.85;;;3.30;92.70;;;;;;4990061;28;20133;-87
2020/12/31 03:39:59;;;;;;;145.77;36.35;;;3.30;93.10;;;;;;4989095;28;20553;-88
2020/12/31 03:42:25;;;;;;;89.47;37.95;;;3.30;92.90;;;;;;4991766;28;20470;-87
2020/12/31 03:44:50;;;;;;;114.88;37.30;;;3.30;93.10;;;;;;4992081;28;20513;-88
2020/12/31 03:47:16;;;;;;;90.30;36.10;;;3.30;93.00;;;;;;4973246;28;20034;-88
2020/12/31 03:49:42;;;;;;;91.53;37.58;;;3.30;93.10;;;;;;4989741;28;20047;-87
2020/12/31 03:52:07;;;;;;;139.90;39.40;;;3.40;93.20;;;;;;4990472;28;20113;-88
2020/12/31 03:54:33;;;;;;;83.95;36.25;;;3.40;93.20;;;;;;4983371;28;20482;-87
2020/12/31 03:56:59;;;;;;;103.90;38.10;;;3.40;92.90;;;;;;4991227;28;20580;-87
2020/12/31 03:59:24;;;;;;;84.55;36.92;;;3.50;92.90;;;;;;4993113;28;20026;-88
2020/12/31 04:01:50;;;;;;;95.00;38.85;;;3.50;93.00;;;;;;4989764;28;20033;-87
2020/12/31 04:04:15;;;;;;;99.47;42.30;;;3.50;92.90;;;;;;4989357;28;20035;-87
2020/12/31 04:06:41;;;;;;;108.10;37.95;;;3.50;92.70;;;;;;4972322;28;20408;-88
2020/12/31 04:09:07;;;;;;;98.53;36.83;;;3.50;92.90;;;;;;4990940;28;20033;-88
2020/12/31 04:11:32;;;;;;;86.55;35.33;;;3.50;92.90;;;;;;4993685;28;20540;-86
2020/12/31 04:13:58;;;;;;;105.00;36.63;;;3.60;92.80;;;;;;4989758;28;20077;-87
2020/12/31 04:16:24;;;;;;;90.30;35.92;;;3.60;92.80;;;;;;4990868;28;20390;-87
2020/12/31 04:18:49;;;;;;;64.85;32.20;;;3.60;92.50;;;;;;4992061;28;20065;-87
2020/12/31 04:21:20;;;;;;;77.07;29.20;;;3.50;92.40;;;;;;4991850;28;20022;-87
2020/12/31 04:23:45;;;;;;;67.72;33.22;;;3.50;92.00;;;;;;4989696;28;20031;-88
2020/12/31 04:26:11;;;;;;;74.60;31.17;;;3.50;92.00;;;;;;4992179;28;20042;-87
2020/12/31 04:28:37;;;;;;;70.30;31.90;;;3.50;92.10;;;;;;4990088;28;20027;-88
2020/12/31 04:31:03;;;;;;;76.03;33.00;;;3.50;92.20;;;;;;4989243;28;20030;-87
2020/12/31 04:33:29;;;;;;;69.72;32.70;;;3.60;92.00;;;;;;4991438;28;20030;-88
2020/12/31 04:35:54;;;;;;;65.63;32.47;;;3.80;91.80;;;;;;4990259;28;20065;-87
2020/12/31 04:38:20;;;;;;;65.38;33.90;;;3.80;91.40;;;;;;4993739;28;20025;-87
2020/12/31 04:40:46;;;;;;;71.10;31.10;;;3.70;91.50;;;;;;4975178;28;20033;-87
2020/12/31 04:43:12;;;;;;;69.40;32.88;;;3.70;91.60;;;;;;4989771;28;20530;-87
2020/12/31 04:45:39;;;;;;;76.63;34.25;;;3.70;91.70;;;;;;4989546;28;20050;-89
2020/12/31 04:48:20;;;;;;;101.28;36.55;;;3.70;91.90;;;;;;4989124;28;20035;-88
2020/12/31 04:50:48;;;;;;;112.05;34.13;;;3.60;91.90;;;;;;4988475;28;20030;-87
2020/12/31 04:53:14;;;;;;;67.50;33.75;;;3.60;91.80;;;;;;4989015;28;20023;-89
2020/12/31 04:55:43;;;;;;;66.10;33.35;;;3.50;92.10;;;;;;4986651;28;20096;-87
2020/12/31 04:58:10;;;;;;;73.28;35.67;;;3.50;92.20;;;;;;4990094;28;20032;-87
2020/12/31 05:00:36;;;;;;;80.82;38.63;;;3.50;92.20;;;;;;4971684;28;20037;-88
2020/12/31 05:03:03;;;;;;;72.20;34.42;;;3.50;92.30;;;;;;4988108;28;20094;-88
2020/12/31 05:05:29;;;;;;;70.45;32.95;;;3.50;92.20;;;;;;4991756;28;20066;-88
2020/12/31 05:07:56;;;;;;;74.55;36.33;;;3.50;92.30;;;;;;4991610;28;20022;-87
2020/12/31 05:10:22;;;;;;;69.03;37.05;;;3.60;92.10;;;;;;4990297;28;20031;-87
2020/12/31 05:13:00;;;;;;;73.88;37.88;;;3.60;92.10;;;;;;5005605;28;20029;-87
2020/12/31 05:15:40;;;;;;;71.95;37.83;;;3.60;92.00;;;;;;4989697;28;20169;-88
2020/12/31 05:18:25;;;;;;;67.93;36.33;;;3.60;92.00;;;;;;4990059;28;20034;-88
2020/12/31 05:20:56;;;;;;;77.97;38.55;;;3.50;92.10;;;;;;4989619;28;20022;-88
2020/12/31 05:23:21;;;;;;;;;;;3.60;92.20;;;;;;4991037;28;20487;-89
2020/12/31 05:25:48;;;;;;;68.65;35.60;;;3.60;92.10;;;;;;4987109;28;19956;-88
2020/12/31 05:28:29;;;;;;;63.83;33.38;;;3.50;92.00;;;;;;4988888;28;20053;-88
2020/12/31 05:31:00;;;;;;;62.17;33.95;;;3.50;92.20;;;;;;4990335;28;20034;-88
2020/12/31 05:33:40;;;;;;;71.65;37.40;;;3.50;92.20;;;;;;4972892;28;20422;-88
2020/12/31 05:36:19;;;;;;;50.10;28.77;;;3.50;92.20;;;;;;4988758;28;20077;-88
2020/12/31 05:38:56;;;;;;;61.65;32.58;;;3.50;92.10;;;;;;4988468;28;20034;-88
2020/12/31 05:41:26;;;;;;;63.03;32.50;;;3.40;92.10;;;;;;4989500;28;20041;-88
2020/12/31 05:43:59;;;;;;;62.40;33.15;;;3.50;92.20;;;;;;4989898;28;20030;-87
2020/12/31 05:46:26;;;;;;;61.80;31.30;;;3.40;92.20;;;;;;4988559;28;20041;-87
2020/12/31 05:48:59;;;;;;;55.72;30.05;;;3.40;92.10;;;;;;4986766;28;20081;-88
2020/12/31 05:51:34;;;;;;;56.10;30.80;;;3.40;92.00;;;;;;4982846;28;20018;-88
2020/12/31 05:54:07;;;;;;;61.33;31.95;;;3.50;91.80;;;;;;4991485;28;20033;-88
2020/12/31 05:56:34;;;;;;;63.60;32.42;;;3.50;91.80;;;;;;4992512;28;20038;-88
2020/12/31 05:59:25;;;;;;;53.75;29.42;;;3.50;91.90;;;;;;4988085;28;20425;-87
2020/12/31 06:02:01;;;;;;;56.45;27.75;;;3.50;92.00;;;;;;4985704;28;20030;-88
2020/12/31 06:04:30;;;;;;;58.25;32.65;;;3.50;91.90;;;;;;4988570;28;20077;-87
2020/12/31 06:07:03;;;;;;;64.10;32.67;;;3.40;91.90;;;;;;4988178;28;20026;-88
2020/12/31 06:09:34;;;;;;;56.03;33.33;;;3.40;92.00;;;;;;4987958;28;20077;-87
2020/12/31 06:12:08;;;;;;;56.55;28.98;;;3.40;92.10;;;;;;4989587;28;20049;-88
2020/12/31 06:14:37;;;;;;;49.67;27.98;;;3.40;92.00;;;;;;4986132;28;20026;-88
2020/12/31 06:17:05;;;;;;;48.15;27.30;;;3.40;92.00;;;;;;4987128;28;20045;-87
2020/12/31 06:19:39;;;;;;;54.00;27.63;;;3.40;92.20;;;;;;4988214;28;20045;-88
2020/12/31 06:22:12;;;;;;;54.13;28.85;;;3.40;91.90;;;;;;4989958;28;20113;-88
2020/12/31 06:24:47;;;;;;;54.78;31.33;;;3.40;92.00;;;;;;4981888;28;20065;-89
2020/12/31 06:27:15;;;;;;;52.80;29.25;;;3.40;92.20;;;;;;4981809;28;20026;-87
2020/12/31 06:29:40;;;;;;;54.45;30.98;;;3.40;92.10;;;;;;4995843;28;20023;-88
2020/12/31 06:32:16;;;;;;;55.90;29.55;;;3.40;92.10;;;;;;4993165;28;20030;-88
2020/12/31 06:34:42;;;;;;;58.40;33.40;;;3.50;91.90;;;;;;4992184;28;20058;-88
2020/12/31 06:37:12;;;;;;;61.75;34.05;;;3.40;91.90;;;;;;4994191;28;20089;-88
2020/12/31 06:39:39;;;;;;;63.20;33.53;;;3.40;92.10;;;;;;4971170;28;20080;-87
2020/12/31 06:42:05;;;;;;;58.53;33.05;;;3.40;92.10;;;;;;4990272;28;20030;-88
2020/12/31 06:44:31;;;;;;;60.42;36.15;;;3.40;92.00;;;;;;4994432;28;20038;-87
2020/12/31 06:46:58;;;;;;;62.42;33.55;;;3.50;92.00;;;;;;4992604;28;20023;-87
2020/12/31 06:49:53;;;;;;;62.47;34.35;;;3.40;92.00;;;;;;4988713;28;20034;-87
2020/12/31 06:52:23;;;;;;;65.43;35.63;;;3.40;92.10;;;;;;4987286;28;20058;-87
2020/12/31 06:54:49;;;;;;;60.13;32.78;;;3.40;92.40;;;;;;4986603;28;20110;-86
2020/12/31 06:57:38;;;;;;;70.80;35.15;;;3.40;92.10;;;;;;4989414;28;20424;-88
2020/12/31 07:00:05;;;;;;;59.83;31.50;;;3.40;92.20;;;;;;4973343;28;20042;-87
2020/12/31 07:02:44;;;;;;;64.13;33.45;;;3.30;92.30;;;;;;4990345;28;20130;-87
2020/12/31 07:05:20;;;;;;;67.78;34.03;;;3.40;92.50;;;;;;4992834;28;20046;-87
2020/12/31 07:07:46;;;;;;;67.78;34.20;;;3.30;92.30;;;;;;4983251;28;20030;-88
2020/12/31 07:10:11;;;;;;;62.25;32.10;;;3.30;92.30;;;;;;4991177;28;20080;-87
2020/12/31 07:12:39;;;;;;;59.65;30.83;;;3.30;92.20;;;;;;4990992;28;20101;-88
2020/12/31 07:15:06;;;;;;;66.07;30.13;;;3.30;92.40;;;;;;4990901;28;20387;-87
2020/12/31 07:17:40;;;;;;;55.85;29.30;;;3.40;92.40;;;;;;4992742;28;20088;-87
2020/12/31 07:20:09;;;;;;;53.28;28.20;;;3.40;92.10;;;;;;4989481;28;20109;-87
2020/12/31 07:22:43;;;;;;;62.90;31.08;;;3.30;92.00;;;;;;4991228;28;20113;-87
2020/12/31 07:25:10;;;;;;;57.85;31.55;;;3.30;91.90;;;;;;4989464;28;20045;-87
2020/12/31 07:27:38;;;;;;;65.88;27.92;;;3.30;92.20;;;;;;4989867;28;20030;-88
2020/12/31 07:30:07;;;;;;;49.53;26.23;;;3.30;91.80;;;;;;4990553;28;20031;-88
2020/12/31 07:32:55;;;;;;;52.97;28.98;;;3.30;91.90;;;;;;4990953;28;20516;-88
2020/12/31 07:35:22;;;;;;;51.53;27.02;;;3.30;92.10;;;;;;4990343;28;20042;-87
2020/12/31 07:37:56;;;;;;;47.55;25.30;;;3.40;92.00;;;;;;4990686;28;20042;-87
2020/12/31 07:40:31;;;;;;;56.28;27.08;;;3.40;91.80;;;;;;4991587;28;20068;-88
2020/12/31 07:42:57;;;;;;;53.95;27.75;;;3.40;91.60;;;;;;4985992;28;20074;-88
2020/12/31 07:45:23;;;;;;;62.40;26.63;;;3.40;91.80;;;;;;4973991;28;20039;-87
2020/12/31 07:47:51;;;;;;;62.33;26.23;;;3.40;91.80;;;;;;4992706;28;20022;-87
2020/12/31 07:50:17;;;;;;;60.60;27.73;;;3.40;91.50;;;;;;4992446;28;20080;-87
2020/12/31 07:52:43;;;;;;;54.03;27.77;;;3.30;91.90;;;;;;4990292;28;20053;-88
2020/12/31 07:55:09;;;;;;;60.55;28.02;;;3.40;91.90;;;;;;4992313;28;20072;-88
2020/12/31 07:57:40;;;;;;;66.90;27.55;;;3.40;91.80;;;;;;4988033;28;20157;-87
2020/12/31 08:00:06;;;;;;;49.85;25.73;;;3.40;91.70;;;;;;4990210;28;20520;-87
2020/12/31 08:02:33;;;;;;;45.75;22.75;;;3.40;91.70;;;;;;4993131;28;20030;-88
2020/12/31 08:05:09;;;;;;;48.40;23.40;;;3.40;91.50;;;;;;4991056;28;20459;-87
2020/12/31 08:07:34;;;;;;;45.20;24.15;;;3.50;90.90;;;;;;4989673;28;21332;-88
2020/12/31 08:10:00;;;;;;;50.28;24.25;;;3.50;90.60;;;;;;4988664;28;20101;-87
2020/12/31 08:12:26;;;;;;;54.25;24.02;;;3.50;91.00;;;;;;4989962;28;20026;-88
2020/12/31 08:14:52;;;;;;;46.95;24.40;;;3.50;91.10;;;;;;4992002;28;20076;-87
2020/12/31 08:17:18;;;;;;;49.95;23.80;;;3.40;91.10;;;;;;4992654;28;20034;-88
2020/12/31 08:19:44;;;;;;;41.40;22.55;;;3.40;91.30;;;;;;4990623;28;20029;-87
2020/12/31 08:22:51;;;;;;;51.35;21.52;;;3.30;91.10;;;;;;4972911;28;20061;-87
2020/12/31 08:25:24;;;;;;;56.50;20.58;;;3.30;91.00;;;;;;4975644;28;20549;-88
2020/12/31 08:27:51;;;;;;;49.20;21.60;;;3.30;91.30;;;;;;4989906;28;20041;-88
2020/12/31 08:30:19;;;;;;;61.22;20.25;;;3.30;91.40;;;;;;4992312;28;20030;-87
2020/12/31 08:32:51;;;;;;;53.58;23.92;;;3.20;91.10;;;;;;4992207;28;20478;-88
2020/12/31 08:35:27;;;;;;;44.03;21.70;;;3.30;91.30;;;;;;4991624;28;20026;-87
2020/12/31 08:38:07;;;;;;;55.47;23.67;;;3.40;91.00;;;;;;4991052;28;20520;-87
2020/12/31 08:40:39;;;;;;;59.53;22.67;;;3.30;91.20;;;;;;4972426;28;20030;-88
2020/12/31 08:43:08;;;;;;;60.10;23.25;;;3.20;91.30;;;;;;4989136;28;20033;-88
2020/12/31 08:45:34;;;;;;;64.88;22.95;;;3.30;91.40;;;;;;4981924;28;20032;-88
2020/12/31 08:48:16;;;;;;;96.90;26.38;;;3.30;91.30;;;;;;4989624;28;20073;-87
2020/12/31 08:50:43;;;;;;;97.85;25.85;;;3.10;91.30;;;;;;4987698;28;20370;-87
2020/12/31 08:53:11;;;;;;;53.13;24.88;;;3.10;91.50;;;;;;4984344;28;20041;-87
2020/12/31 08:55:37;;;;;;;50.33;23.83;;;3.10;91.70;;;;;;4988605;28;20038;-89
2020/12/31 08:58:13;;;;;;;66.38;21.95;;;3.20;91.90;;;;;;4988523;28;20058;-88
2020/12/31 09:00:39;;;;;;;55.35;22.08;;;3.20;91.60;;;;;;4989742;28;20022;-87
2020/12/31 09:03:05;;;;;;;40.17;20.27;;;3.20;91.70;;;;;;4989615;28;20506;-88
2020/12/31 09:05:31;;;;;;;48.08;20.35;;;3.20;91.30;;;;;;4991045;28;20042;-88
2020/12/31 09:08:07;;;;;;;52.08;20.08;;;3.10;91.20;;;;;;4970508;28;20088;-89
2020/12/31 09:10:35;;;;;;;41.70;18.80;;;3.10;91.30;;;;;;4983443;28;20026;-89
2020/12/31 09:13:02;;;;;;;45.63;19.85;;;3.10;91.30;;;;;;4986456;28;20030;-89
2020/12/31 09:15:28;;;;;;;46.38;21.02;;;3.10;91.30;;;;;;4989926;28;20113;-88
2020/12/31 09:17:54;;;;;;;39.60;18.63;;;3.00;91.50;;;;;;4987673;28;20398;-88
2020/12/31 09:20:22;;;;;;;51.95;19.52;;;3.10;91.60;;;;;;4988313;28;20475;-87
2020/12/31 09:22:48;;;;;;;43.45;19.67;;;3.10;91.30;;;;;;4988125;28;20113;-87
2020/12/31 09:25:14;;;;;;;45.08;20.85;;;3.10;91.50;;;;;;4988208;28;20030;-87
2020/12/31 09:27:40;;;;;;;48.63;21.25;;;3.20;91.50;;;;;;4987920;28;20410;-87
2020/12/31 09:30:10;;;;;;;37.38;19.75;;;3.30;91.40;;;;;;4984835;28;20471;-87
2020/12/31 09:32:36;;;;;;;40.45;19.77;;;3.20;91.00;;;;;;4986879;28;20034;-87
2020/12/31 09:35:04;;;;;;;43.97;19.90;;;3.30;91.00;;;;;;4988058;28;20041;-87
2020/12/31 09:37:30;;;;;;;42.22;20.17;;;3.30;91.00;;;;;;4987615;28;20050;-88
2020/12/31 09:39:56;;;;;;;44.08;21.23;;;3.30;90.90;;;;;;4987322;28;20027;-88
2020/12/31 09:42:22;;;;;;;60.53;22.30;;;3.30;90.80;;;;;;4988941;28;20018;-87
2020/12/31 09:44:47;;;;;;;51.63;22.25;;;3.30;91.10;;;;;;4988520;28;20030;-87
2020/12/31 09:47:13;;;;;;;50.63;21.45;;;3.30;91.20;;;;;;4986929;28;20146;-87
2020/12/31 09:49:38;;;;;;;51.47;22.73;;;3.30;91.20;;;;;;4986650;28;20054;-87
2020/12/31 09:52:04;;;;;;;55.70;22.90;;;3.40;91.40;;;;;;4968981;28;20034;-87
2020/12/31 09:54:30;;;;;;;58.00;25.00;;;3.30;91.20;;;;;;4989105;28;20026;-88
2020/12/31 09:56:55;;;;;;;48.83;21.98;;;3.30;91.70;;;;;;4985467;28;20084;-87
2020/12/31 09:59:21;;;;;;;57.67;26.55;;;3.40;91.80;;;;;;4990757;28;20030;-87
2020/12/31 10:01:47;;;;;;;68.55;28.02;;;3.50;91.70;;;;;;4987363;28;20019;-88
2020/12/31 10:04:13;;;;;;;55.42;26.30;;;3.50;91.60;;;;;;4985200;28;21034;-88
2020/12/31 10:06:44;;;;;;;53.75;25.80;;;3.50;91.60;;;;;;4988754;28;20090;-87
2020/12/31 10:09:12;;;;;;;49.58;24.00;;;3.50;91.10;;;;;;4985646;28;20049;-87
2020/12/31 10:11:43;;;;;;;54.17;26.02;;;3.50;91.20;;;;;;4981769;28;20042;-88
2020/12/31 10:14:08;;;;;;;60.85;26.98;;;3.50;91.50;;;;;;4987601;28;20105;-88
2020/12/31 10:16:34;;;;;;;54.75;25.88;;;3.50;91.50;;;;;;4988789;28;20123;-88
2020/12/31 10:19:00;;;;;;;61.47;27.58;;;3.50;91.50;;;;;;4988358;28;20026;-87
2020/12/31 10:21:25;;;;;;;56.75;27.80;;;3.50;91.60;;;;;;4989326;28;20478;-89
2020/12/31 10:23:51;;;;;;;56.25;26.77;;;3.60;91.30;;;;;;4988963;28;20117;-89
2020/12/31 10:26:19;;;;;;;55.45;26.75;;;3.50;91.40;;;;;;4972880;28;20478;-88
2020/12/31 10:28:45;;;;;;;72.55;27.70;;;3.50;91.30;;;;;;4989011;28;20019;-87
2020/12/31 10:31:11;;;;;;;59.17;25.05;;;3.50;91.40;;;;;;4985840;28;20153;-88
2020/12/31 10:33:36;;;;;;;53.65;27.35;;;3.50;91.20;;;;;;4988349;28;20046;-87
2020/12/31 10:36:02;;;;;;;43.70;23.65;;;3.50;91.20;;;;;;5003685;28;20479;-87
2020/12/31 10:38:29;;;;;;;43.75;21.73;;;3.40;91.00;;;;;;4990113;28;20486;-87
2020/12/31 10:40:54;;;;;;;46.53;25.13;;;3.50;90.60;;;;;;4988808;28;20385;-87
2020/12/31 10:43:20;;;;;;;50.72;23.88;;;3.30;90.80;;;;;;4987193;28;20037;-88
2020/12/31 10:45:46;;;;;;;51.92;25.17;;;3.30;91.00;;;;;;4987711;28;20100;-88
2020/12/31 10:48:13;;;;;;;50.63;25.65;;;3.30;91.20;;;;;;4985849;28;20022;-88
2020/12/31 10:50:38;;;;;;;48.13;24.33;;;3.30;91.30;;;;;;4971999;28;20023;-88
2020/12/31 10:53:04;;;;;;;38.63;21.15;;;3.40;91.10;;;;;;4987245;28;20371;-88
2020/12/31 10:55:30;;;;;;;43.35;23.65;;;3.40;90.60;;;;;;4987589;28;20109;-87
2020/12/31 10:57:56;;;;;;;41.60;23.17;;;3.30;91.00;;;;;;4989240;28;20026;-88
2020/12/31 11:00:21;;;;;;;43.90;22.15;;;3.30;91.20;;;;;;4987564;28;20128;-88
2020/12/31 11:02:47;;;;;;;45.42;24.35;;;3.30;91.00;;;;;;4972391;28;20037;-89
2020/12/31 11:05:13;;;;;;;48.95;26.35;;;3.30;91.40;;;;;;4989007;28;20038;-87
2020/12/31 11:07:39;;;;;;;50.25;23.92;;;3.30;91.40;;;;;;4987137;28;20394;-88
2020/12/31 11:10:05;;;;;;;48.47;23.90;;;3.30;91.20;;;;;;4988101;28;20390;-87
2020/12/31 11:12:32;;;;;;;43.80;22.45;;;3.30;91.30;;;;;;4989499;28;20486;-89
2020/12/31 11:14:58;;;;;;;44.00;22.30;;;3.30;91.30;;;;;;4986505;28;20034;-88
2020/12/31 11:17:24;;;;;;;42.30;20.67;;;3.30;91.10;;;;;;4990630;28;20390;-88
2020/12/31 11:19:50;;;;;;;50.53;22.67;;;3.30;91.10;;;;;;4991693;28;20520;-87
2020/12/31 11:22:15;;;;;;;46.83;23.40;;;3.30;91.00;;;;;;4987201;28;20057;-88
2020/12/31 11:24:41;;;;;;;46.97;23.48;;;3.30;91.20;;;;;;4990629;28;20022;-87
2020/12/31 11:27:07;;;;;;;45.53;24.17;;;3.40;90.90;;;;;;4971764;28;20117;-88
2020/12/31 11:29:33;;;;;;;47.25;23.10;;;3.40;90.80;;;;;;4994469;28;20105;-89
2020/12/31 11:32:02;;;;;;;47.03;24.05;;;3.30;91.10;;;;;;4990426;28;20023;-89
2020/12/31 11:34:28;;;;;;;53.87;26.17;;;3.30;91.30;;;;;;4990652;28;20516;-89
2020/12/31 11:36:55;;;;;;;46.53;24.45;;;3.30;91.40;;;;;;4989437;28;20134;-89
2020/12/31 11:39:22;;;;;;;49.85;24.60;;;3.30;91.10;;;;;;4989273;28;20080;-88
2020/12/31 11:41:48;;;;;;;51.25;24.58;;;3.40;91.00;;;;;;4986627;28;20023;-89
2020/12/31 11:44:14;;;;;;;51.78;25.45;;;3.30;91.20;;;;;;4973573;28;20014;-89
2020/12/31 11:46:40;;;;;;;56.75;27.67;;;3.30;91.30;;;;;;4984512;28;20125;-90
2020/12/31 11:49:06;;;;;;;48.40;23.48;;;3.30;91.10;;;;;;4973538;28;20487;-89
2020/12/31 11:51:31;;;;;;;47.42;23.33;;;3.30;91.20;;;;;;4990441;28;20085;-87
2020/12/31 11:53:57;;;;;;;58.05;27.83;;;3.30;91.20;;;;;;4973876;28;20046;-89
2020/12/31 11:56:24;;;;;;;53.78;27.70;;;3.30;91.50;;;;;;5015176;28;20510;-88
2020/12/31 11:58:49;;;;;;;48.28;25.75;;;3.30;91.60;;;;;;4974927;28;20034;-90
2020/12/31 12:01:16;;;;;;;47.45;25.13;;;3.30;91.80;;;;;;4975003;28;20026;-89
2020/12/31 12:03:43;;;;;;;57.58;27.92;;;3.30;91.70;;;;;;4973489;28;20110;-89
2020/12/31 12:06:09;;;;;;;42.85;23.77;;;3.30;91.50;;;;;;4991384;28;20552;-89
2020/12/31 12:08:35;;;;;;;50.15;24.17;;;3.30;91.50;;;;;;4988290;28;20026;-90
2020/12/31 12:11:00;;;;;;;52.10;24.75;;;3.40;91.10;;;;;;4990057;28;20058;-90
2020/12/31 12:13:27;;;;;;;47.10;24.35;;;3.40;91.00;;;;;;4974495;28;20034;-89
2020/12/31 12:15:53;;;;;;;45.83;24.48;;;3.40;91.10;;;;;;4974108;28;20105;-89
2020/12/31 12:18:19;;;;;;;47.80;25.08;;;3.40;91.10;;;;;;4990482;28;20027;-89
2020/12/31 12:20:48;;;;;;;54.40;26.33;;;3.40;91.10;;;;;;4991623;28;20037;-89
2020/12/31 12:23:14;;;;;;;56.95;26.85;;;3.40;91.10;;;;;;4991316;28;20026;-90
2020/12/31 12:25:39;;;;;;;52.88;27.20;;;3.40;91.30;;;;;;4973634;28;20045;-90
2020/12/31 12:28:05;;;;;;;53.85;27.23;;;3.40;91.40;;;;;;4974707;28;20109;-88
2020/12/31 12:30:31;;;;;;;46.97;24.90;;;3.40;91.50;;;;;;4990819;28;20033;-89
2020/12/31 12:32:56;;;;;;;47.55;25.60;;;3.40;91.30;;;;;;4973046;28;20069;-88
2020/12/31 12:35:22;;;;;;;60.95;29.13;;;3.30;91.20;;;;;;4991390;28;20529;-88
2020/12/31 12:37:48;;;;;;;51.13;25.42;;;3.30;91.80;;;;;;4990096;28;20093;-88
2020/12/31 12:40:14;;;;;;;46.15;25.83;;;3.30;91.10;;;;;;4991114;28;20064;-88